Station Historical Data
Daily Summary for March 6, 2012 Units:  Both    English   Metric
« Previous Day
Next Day »
Daily Weekly Monthly Yearly Custom
  High: Low: Average:
Temperature: 65.0 °F /  18.3 °C 35.5 °F /  1.9 °C 49.9 °F /  9.9 °C
Dew Point: 31.6 °F /  -0.2 °C 23.6 °F /  -4.7 °C 26.6 °F /  -3 °C
Humidity: 64% 21% 43%
Wind Speed: 21.0mph /  33.8km/h - 7.2mph /  11.6km/h
Wind Gust: 21.0mph /  33.8km/h - -
Wind- - SE
Pressure: 30.46 in /  1031.4 hPa 30.30 in /  1026 hPa -
Precipitation: 0.00 in /  0 mm    
Historical Graphs
 
 
Tabular Data for March 6, 2012
Time Temperature Dew Point Pressure Wind Wind Speed Wind Gust Humidity Rainfall Rate (Hourly) Conditions
00:00 38.5 °F /  3.6 °C 23.8 °F /  -4.6 °C 30.41in /  1029.7hPa ESE 4.0mph /  6.4km/h 5.0mph /  8km/h 55% 0.00in /  0mm
00:05 38.3 °F /  3.5 °C 24.0 °F /  -4.4 °C 30.42in /  1030hPa ESE 4.0mph /  6.4km/h 5.0mph /  8km/h 56% 0.00in /  0mm
00:10 38.3 °F /  3.5 °C 24.0 °F /  -4.4 °C 30.42in /  1030hPa ESE 5.0mph /  8km/h 5.0mph /  8km/h 56% 0.00in /  0mm
00:15 38.2 °F /  3.4 °C 23.9 °F /  -4.5 °C 30.41in /  1029.7hPa East 5.0mph /  8km/h 5.0mph /  8km/h 56% 0.00in /  0mm
00:21 38.1 °F /  3.4 °C 24.6 °F /  -4.1 °C 30.41in /  1029.7hPa East 3.0mph /  4.8km/h 3.0mph /  4.8km/h 58% 0.00in /  0mm
00:26 37.9 °F /  3.3 °C 24.9 °F /  -3.9 °C 30.41in /  1029.7hPa ESE 3.0mph /  4.8km/h 4.0mph /  6.4km/h 59% 0.00in /  0mm
00:31 37.8 °F /  3.2 °C 24.8 °F /  -4 °C 30.41in /  1029.7hPa ESE 4.0mph /  6.4km/h 4.0mph /  6.4km/h 59% 0.00in /  0mm
00:36 37.8 °F /  3.2 °C 24.8 °F /  -4 °C 30.41in /  1029.7hPa ESE 4.0mph /  6.4km/h 5.0mph /  8km/h 59% 0.00in /  0mm
00:41 37.6 °F /  3.1 °C 24.6 °F /  -4.1 °C 30.41in /  1029.7hPa ESE 4.0mph /  6.4km/h 4.0mph /  6.4km/h 59% 0.00in /  0mm
00:46 37.7 °F /  3.2 °C 24.3 °F /  -4.3 °C 30.41in /  1029.7hPa East 2.0mph /  3.2km/h 5.0mph /  8km/h 58% 0.00in /  0mm
00:51 37.7 °F /  3.2 °C 24.3 °F /  -4.3 °C 30.41in /  1029.7hPa ESE 3.0mph /  4.8km/h 4.0mph /  6.4km/h 58% 0.00in /  0mm
00:56 37.8 °F /  3.2 °C 24.4 °F /  -4.2 °C 30.41in /  1029.7hPa ESE 5.0mph /  8km/h 5.0mph /  8km/h 58% 0.00in /  0mm
01:01 37.8 °F /  3.2 °C 24.4 °F /  -4.2 °C 30.41in /  1029.7hPa East 2.0mph /  3.2km/h 6.0mph /  9.7km/h 58% 0.00in /  0mm
01:06 37.7 °F /  3.2 °C 24.3 °F /  -4.3 °C 30.41in /  1029.7hPa East 5.0mph /  8km/h 6.0mph /  9.7km/h 58% 0.00in /  0mm
01:11 37.6 °F /  3.1 °C 24.6 °F /  -4.1 °C 30.41in /  1029.7hPa ESE 3.0mph /  4.8km/h 4.0mph /  6.4km/h 59% 0.00in /  0mm
01:16 37.3 °F /  2.9 °C 24.7 °F /  -4.1 °C 30.42in /  1030hPa ESE 3.0mph /  4.8km/h 4.0mph /  6.4km/h 60% 0.00in /  0mm
01:21 37.3 °F /  2.9 °C 24.3 °F /  -4.3 °C 30.42in /  1030hPa ESE 4.0mph /  6.4km/h 4.0mph /  6.4km/h 59% 0.00in /  0mm
01:27 37.2 °F /  2.9 °C 24.6 °F /  -4.1 °C 30.42in /  1030hPa ESE 4.0mph /  6.4km/h 4.0mph /  6.4km/h 60% 0.00in /  0mm
01:32 37.1 °F /  2.8 °C 24.5 °F /  -4.2 °C 30.42in /  1030hPa ESE 2.0mph /  3.2km/h 4.0mph /  6.4km/h 60% 0.00in /  0mm
01:37 37.1 °F /  2.8 °C 24.5 °F /  -4.2 °C 30.42in /  1030hPa ESE 5.0mph /  8km/h 5.0mph /  8km/h 60% 0.00in /  0mm
01:42 37.1 °F /  2.8 °C 24.5 °F /  -4.2 °C 30.42in /  1030hPa SE 3.0mph /  4.8km/h 5.0mph /  8km/h 60% 0.00in /  0mm
01:47 36.9 °F /  2.7 °C 24.7 °F /  -4.1 °C 30.42in /  1030hPa ESE 3.0mph /  4.8km/h 4.0mph /  6.4km/h 61% 0.00in /  0mm
01:52 37.2 °F /  2.9 °C 24.2 °F /  -4.3 °C 30.42in /  1030hPa ESE 4.0mph /  6.4km/h 7.0mph /  11.3km/h 59% 0.00in /  0mm
01:57 37.2 °F /  2.9 °C 24.6 °F /  -4.1 °C 30.42in /  1030hPa ESE 4.0mph /  6.4km/h 6.0mph /  9.7km/h 60% 0.00in /  0mm
02:02 37.2 °F /  2.9 °C 24.6 °F /  -4.1 °C 30.42in /  1030hPa ESE 3.0mph /  4.8km/h 5.0mph /  8km/h 60% 0.00in /  0mm
02:07 37.1 °F /  2.8 °C 24.5 °F /  -4.2 °C 30.42in /  1030hPa East 4.0mph /  6.4km/h 5.0mph /  8km/h 60% 0.00in /  0mm
02:12 37.0 °F /  2.8 °C 24.4 °F /  -4.2 °C 30.42in /  1030hPa ESE 3.0mph /  4.8km/h 5.0mph /  8km/h 60% 0.00in /  0mm
02:17 37.2 °F /  2.9 °C 24.6 °F /  -4.1 °C 30.42in /  1030hPa ESE 5.0mph /  8km/h 5.0mph /  8km/h 60% 0.00in /  0mm
02:22 37.3 °F /  2.9 °C 24.7 °F /  -4.1 °C 30.42in /  1030hPa ESE 4.0mph /  6.4km/h 5.0mph /  8km/h 60% 0.00in /  0mm
02:27 37.3 °F /  2.9 °C 24.7 °F /  -4.1 °C 30.42in /  1030hPa ESE 3.0mph /  4.8km/h 5.0mph /  8km/h 60% 0.00in /  0mm
02:32 37.1 °F /  2.8 °C 24.9 °F /  -3.9 °C 30.42in /  1030hPa East 4.0mph /  6.4km/h 5.0mph /  8km/h 61% 0.00in /  0mm
02:37 37.2 °F /  2.9 °C 24.6 °F /  -4.1 °C 30.42in /  1030hPa ESE 3.0mph /  4.8km/h 5.0mph /  8km/h 60% 0.00in /  0mm
02:42 37.2 °F /  2.9 °C 25.0 °F /  -3.9 °C 30.42in /  1030hPa ESE 6.0mph /  9.7km/h 6.0mph /  9.7km/h 61% 0.00in /  0mm
02:47 37.2 °F /  2.9 °C 25.0 °F /  -3.9 °C 30.42in /  1030hPa ESE 5.0mph /  8km/h 6.0mph /  9.7km/h 61% 0.00in /  0mm
02:52 37.0 °F /  2.8 °C 25.2 °F /  -3.8 °C 30.42in /  1030hPa East 5.0mph /  8km/h 6.0mph /  9.7km/h 62% 0.00in /  0mm
02:57 36.7 °F /  2.6 °C 24.9 °F /  -3.9 °C 30.42in /  1030hPa ESE 4.0mph /  6.4km/h 6.0mph /  9.7km/h 62% 0.00in /  0mm
03:02 36.7 °F /  2.6 °C 25.3 °F /  -3.7 °C 30.42in /  1030hPa ESE 4.0mph /  6.4km/h 5.0mph /  8km/h 63% 0.00in /  0mm
03:07 36.6 °F /  2.6 °C 24.8 °F /  -4 °C 30.42in /  1030hPa ESE 4.0mph /  6.4km/h 6.0mph /  9.7km/h 62% 0.00in /  0mm
03:12 36.7 °F /  2.6 °C 24.9 °F /  -3.9 °C 30.42in /  1030hPa ESE 7.0mph /  11.3km/h 7.0mph /  11.3km/h 62% 0.00in /  0mm
03:17 36.6 °F /  2.6 °C 24.8 °F /  -4 °C 30.41in /  1029.7hPa ESE 5.0mph /  8km/h 6.0mph /  9.7km/h 62% 0.00in /  0mm
03:22 36.5 °F /  2.5 °C 25.1 °F /  -3.8 °C 30.41in /  1029.7hPa ESE 4.0mph /  6.4km/h 6.0mph /  9.7km/h 63% 0.00in /  0mm
03:27 36.5 °F /  2.5 °C 25.1 °F /  -3.8 °C 30.41in /  1029.7hPa SE 4.0mph /  6.4km/h 7.0mph /  11.3km/h 63% 0.00in /  0mm
03:33 36.5 °F /  2.5 °C 25.1 °F /  -3.8 °C 30.41in /  1029.7hPa ESE 6.0mph /  9.7km/h 6.0mph /  9.7km/h 63% 0.00in /  0mm
03:38 36.6 °F /  2.6 °C 25.2 °F /  -3.8 °C 30.41in /  1029.7hPa East 4.0mph /  6.4km/h 6.0mph /  9.7km/h 63% 0.00in /  0mm
03:43 36.5 °F /  2.5 °C 25.1 °F /  -3.8 °C 30.41in /  1029.7hPa ESE 5.0mph /  8km/h 6.0mph /  9.7km/h 63% 0.00in /  0mm
03:48 36.5 °F /  2.5 °C 25.1 °F /  -3.8 °C 30.40in /  1029.3hPa ESE 5.0mph /  8km/h 6.0mph /  9.7km/h 63% 0.00in /  0mm
03:53 36.3 °F /  2.4 °C 24.9 °F /  -3.9 °C 30.40in /  1029.3hPa ESE 5.0mph /  8km/h 6.0mph /  9.7km/h 63% 0.00in /  0mm
03:58 36.3 °F /  2.4 °C 25.3 °F /  -3.7 °C 30.40in /  1029.3hPa ESE 4.0mph /  6.4km/h 6.0mph /  9.7km/h 64% 0.00in /  0mm
04:03 36.2 °F /  2.3 °C 25.2 °F /  -3.8 °C 30.40in /  1029.3hPa ESE 4.0mph /  6.4km/h 6.0mph /  9.7km/h 64% 0.00in /  0mm
04:08 36.1 °F /  2.3 °C 25.1 °F /  -3.8 °C 30.40in /  1029.3hPa ESE 4.0mph /  6.4km/h 5.0mph /  8km/h 64% 0.00in /  0mm
04:13 36.2 °F /  2.3 °C 24.8 °F /  -4 °C 30.40in /  1029.3hPa ESE 5.0mph /  8km/h 6.0mph /  9.7km/h 63% 0.00in /  0mm
04:18 36.4 °F /  2.4 °C 25.0 °F /  -3.9 °C 30.40in /  1029.3hPa ESE 5.0mph /  8km/h 6.0mph /  9.7km/h 63% 0.00in /  0mm
04:23 36.4 °F /  2.4 °C 24.6 °F /  -4.1 °C 30.40in /  1029.3hPa ESE 4.0mph /  6.4km/h 6.0mph /  9.7km/h 62% 0.00in /  0mm
04:28 36.1 °F /  2.3 °C 24.7 °F /  -4.1 °C 30.40in /  1029.3hPa ESE 4.0mph /  6.4km/h 6.0mph /  9.7km/h 63% 0.00in /  0mm
04:33 36.0 °F /  2.2 °C 25.0 °F /  -3.9 °C 30.40in /  1029.3hPa ESE 4.0mph /  6.4km/h 6.0mph /  9.7km/h 64% 0.00in /  0mm
04:38 36.0 °F /  2.2 °C 24.6 °F /  -4.1 °C 30.41in /  1029.7hPa ESE 7.0mph /  11.3km/h 8.0mph /  12.9km/h 63% 0.00in /  0mm
04:43 36.1 °F /  2.3 °C 24.7 °F /  -4.1 °C 30.41in /  1029.7hPa ESE 5.0mph /  8km/h 6.0mph /  9.7km/h 63% 0.00in /  0mm
04:48 36.1 °F /  2.3 °C 24.7 °F /  -4.1 °C 30.41in /  1029.7hPa ESE 5.0mph /  8km/h 5.0mph /  8km/h 63% 0.00in /  0mm
04:53 36.1 °F /  2.3 °C 24.7 °F /  -4.1 °C 30.41in /  1029.7hPa SE 4.0mph /  6.4km/h 6.0mph /  9.7km/h 63% 0.00in /  0mm
04:58 36.3 °F /  2.4 °C 24.9 °F /  -3.9 °C 30.41in /  1029.7hPa SE 4.0mph /  6.4km/h 5.0mph /  8km/h 63% 0.00in /  0mm
05:03 36.5 °F /  2.5 °C 24.7 °F /  -4.1 °C 30.41in /  1029.7hPa ESE 4.0mph /  6.4km/h 5.0mph /  8km/h 62% 0.00in /  0mm
05:08 36.6 °F /  2.6 °C 24.4 °F /  -4.2 °C 30.41in /  1029.7hPa SE 3.0mph /  4.8km/h 5.0mph /  8km/h 61% 0.00in /  0mm
05:13 36.7 °F /  2.6 °C 24.5 °F /  -4.2 °C 30.42in /  1030hPa SE 4.0mph /  6.4km/h 5.0mph /  8km/h 61% 0.00in /  0mm
05:18 36.8 °F /  2.7 °C 24.6 °F /  -4.1 °C 30.41in /  1029.7hPa SE 3.0mph /  4.8km/h 6.0mph /  9.7km/h 61% 0.00in /  0mm
05:23 36.9 °F /  2.7 °C 25.1 °F /  -3.8 °C 30.41in /  1029.7hPa ESE 4.0mph /  6.4km/h 6.0mph /  9.7km/h 62% 0.00in /  0mm
05:28 36.8 °F /  2.7 °C 25.0 °F /  -3.9 °C 30.41in /  1029.7hPa ESE 4.0mph /  6.4km/h 6.0mph /  9.7km/h 62% 0.00in /  0mm
05:33 36.8 °F /  2.7 °C 25.0 °F /  -3.9 °C 30.41in /  1029.7hPa ESE 4.0mph /  6.4km/h 8.0mph /  12.9km/h 62% 0.00in /  0mm
05:38 36.7 °F /  2.6 °C 24.9 °F /  -3.9 °C 30.41in /  1029.7hPa SE 4.0mph /  6.4km/h 8.0mph /  12.9km/h 62% 0.00in /  0mm
05:43 36.4 °F /  2.4 °C 25.0 °F /  -3.9 °C 30.41in /  1029.7hPa ESE 6.0mph /  9.7km/h 6.0mph /  9.7km/h 63% 0.00in /  0mm
05:48 36.4 °F /  2.4 °C 24.6 °F /  -4.1 °C 30.41in /  1029.7hPa ESE 7.0mph /  11.3km/h 7.0mph /  11.3km/h 62% 0.00in /  0mm
05:53 36.4 °F /  2.4 °C 24.6 °F /  -4.1 °C 30.41in /  1029.7hPa ESE 5.0mph /  8km/h 9.0mph /  14.5km/h 62% 0.00in /  0mm
05:58 36.2 °F /  2.3 °C 24.8 °F /  -4 °C 30.41in /  1029.7hPa ESE 4.0mph /  6.4km/h 6.0mph /  9.7km/h 63% 0.00in /  0mm
06:03 36.0 °F /  2.2 °C 24.6 °F /  -4.1 °C 30.41in /  1029.7hPa ESE 6.0mph /  9.7km/h 7.0mph /  11.3km/h 63% 0.00in /  0mm
06:08 35.9 °F /  2.2 °C 24.5 °F /  -4.2 °C 30.41in /  1029.7hPa ESE 4.0mph /  6.4km/h 6.0mph /  9.7km/h 63% 0.00in /  0mm
06:13 36.1 °F /  2.3 °C 24.4 °F /  -4.2 °C 30.41in /  1029.7hPa ESE 6.0mph /  9.7km/h 8.0mph /  12.9km/h 62% 0.00in /  0mm
06:18 36.2 °F /  2.3 °C 24.5 °F /  -4.2 °C 30.41in /  1029.7hPa ESE 4.0mph /  6.4km/h 6.0mph /  9.7km/h 62% 0.00in /  0mm
06:23 36.1 °F /  2.3 °C 24.4 °F /  -4.2 °C 30.42in /  1030hPa ESE 6.0mph /  9.7km/h 6.0mph /  9.7km/h 62% 0.00in /  0mm
06:28 36.0 °F /  2.2 °C 24.6 °F /  -4.1 °C 30.42in /  1030hPa SE 4.0mph /  6.4km/h 6.0mph /  9.7km/h 63% 0.00in /  0mm
06:34 35.7 °F /  2.1 °C 24.4 °F /  -4.2 °C 30.42in /  1030hPa ESE 4.0mph /  6.4km/h 6.0mph /  9.7km/h 63% 0.00in /  0mm
06:39 35.6 °F /  2 °C 24.3 °F /  -4.3 °C 30.42in /  1030hPa ESE 5.0mph /  8km/h 6.0mph /  9.7km/h 63% 0.00in /  0mm
06:44 35.6 °F /  2 °C 24.3 °F /  -4.3 °C 30.42in /  1030hPa ESE 4.0mph /  6.4km/h 6.0mph /  9.7km/h 63% 0.00in /  0mm
06:49 35.5 °F /  1.9 °C 24.2 °F /  -4.3 °C 30.42in /  1030hPa ESE 3.0mph /  4.8km/h 6.0mph /  9.7km/h 63% 0.00in /  0mm
06:54 35.6 °F /  2 °C 24.3 °F /  -4.3 °C 30.42in /  1030hPa ESE 3.0mph /  4.8km/h 6.0mph /  9.7km/h 63% 0.00in /  0mm
06:59 35.7 °F /  2.1 °C 24.4 °F /  -4.2 °C 30.42in /  1030hPa ESE 4.0mph /  6.4km/h 6.0mph /  9.7km/h 63% 0.00in /  0mm
07:04 35.9 °F /  2.2 °C 24.2 °F /  -4.3 °C 30.42in /  1030hPa ESE 7.0mph /  11.3km/h 8.0mph /  12.9km/h 62% 0.00in /  0mm
07:09 36.3 °F /  2.4 °C 24.5 °F /  -4.2 °C 30.42in /  1030hPa SE 6.0mph /  9.7km/h 8.0mph /  12.9km/h 62% 0.00in /  0mm
07:14 36.4 °F /  2.4 °C 24.6 °F /  -4.1 °C 30.42in /  1030hPa ESE 7.0mph /  11.3km/h 9.0mph /  14.5km/h 62% 0.00in /  0mm
07:19 36.5 °F /  2.5 °C 24.7 °F /  -4.1 °C 30.42in /  1030hPa ESE 5.0mph /  8km/h 9.0mph /  14.5km/h 62% 0.00in /  0mm
07:24 36.6 °F /  2.6 °C 24.4 °F /  -4.2 °C 30.42in /  1030hPa ESE 8.0mph /  12.9km/h 10.0mph /  16.1km/h 61% 0.00in /  0mm
07:29 36.7 °F /  2.6 °C 24.5 °F /  -4.2 °C 30.42in /  1030hPa ESE 7.0mph /  11.3km/h 9.0mph /  14.5km/h 61% 0.00in /  0mm
07:34 36.7 °F /  2.6 °C 24.5 °F /  -4.2 °C 30.43in /  1030.4hPa ESE 7.0mph /  11.3km/h 9.0mph /  14.5km/h 61% 0.00in /  0mm
07:39 37.0 °F /  2.8 °C 24.8 °F /  -4 °C 30.43in /  1030.4hPa ESE 8.0mph /  12.9km/h 9.0mph /  14.5km/h 61% 0.00in /  0mm
07:44 37.2 °F /  2.9 °C 25.0 °F /  -3.9 °C 30.43in /  1030.4hPa ESE 7.0mph /  11.3km/h 9.0mph /  14.5km/h 61% 0.00in /  0mm
07:49 37.4 °F /  3 °C 25.2 °F /  -3.8 °C 30.43in /  1030.4hPa ESE 6.0mph /  9.7km/h 10.0mph /  16.1km/h 61% 0.00in /  0mm
07:54 37.7 °F /  3.2 °C 25.1 °F /  -3.8 °C 30.43in /  1030.4hPa ESE 7.0mph /  11.3km/h 9.0mph /  14.5km/h 60% 0.00in /  0mm
07:59 38.1 °F /  3.4 °C 25.1 °F /  -3.8 °C 30.43in /  1030.4hPa ESE 10.0mph /  16.1km/h 11.0mph /  17.7km/h 59% 0.00in /  0mm
08:04 38.5 °F /  3.6 °C 25.8 °F /  -3.4 °C 30.43in /  1030.4hPa SE 5.0mph /  8km/h 10.0mph /  16.1km/h 60% 0.00in /  0mm
08:09 39.0 °F /  3.9 °C 25.9 °F /  -3.4 °C 30.43in /  1030.4hPa ESE 7.0mph /  11.3km/h 10.0mph /  16.1km/h 59% 0.00in /  0mm
08:14 39.6 °F /  4.2 °C 26.1 °F /  -3.3 °C 30.44in /  1030.7hPa ESE 8.0mph /  12.9km/h 10.0mph /  16.1km/h 58% 0.00in /  0mm
08:19 40.2 °F /  4.6 °C 26.6 °F /  -3 °C 30.44in /  1030.7hPa ESE 8.0mph /  12.9km/h 9.0mph /  14.5km/h 58% 0.00in /  0mm
08:24 40.7 °F /  4.8 °C 26.2 °F /  -3.2 °C 30.44in /  1030.7hPa ESE 4.0mph /  6.4km/h 11.0mph /  17.7km/h 56% 0.00in /  0mm
08:29 41.3 °F /  5.2 °C 25.9 °F /  -3.4 °C 30.45in /  1031hPa SSE 9.0mph /  14.5km/h 12.0mph /  19.3km/h 54% 0.00in /  0mm
08:34 41.8 °F /  5.4 °C 25.5 °F /  -3.6 °C 30.45in /  1031hPa ESE 13.0mph /  20.9km/h 13.0mph /  20.9km/h 52% 0.00in /  0mm
08:40 42.2 °F /  5.7 °C 25.9 °F /  -3.4 °C 30.45in /  1031hPa SE 7.0mph /  11.3km/h 14.0mph /  22.5km/h 52% 0.00in /  0mm
08:45 42.7 °F /  5.9 °C 25.9 °F /  -3.4 °C 30.45in /  1031hPa SE 10.0mph /  16.1km/h 12.0mph /  19.3km/h 51% 0.00in /  0mm
08:49 43.0 °F /  6.1 °C 26.1 °F /  -3.3 °C 30.46in /  1031.4hPa SE 11.0mph /  17.7km/h 15.0mph /  24.1km/h 51% 0.00in /  0mm
08:55 43.3 °F /  6.3 °C 25.4 °F /  -3.7 °C 30.45in /  1031hPa ESE 10.0mph /  16.1km/h 14.0mph /  22.5km/h 49% 0.00in /  0mm
09:00 43.7 °F /  6.5 °C 26.3 °F /  -3.2 °C 30.46in /  1031.4hPa ESE 8.0mph /  12.9km/h 12.0mph /  19.3km/h 50% 0.00in /  0mm
09:05 44.2 °F /  6.8 °C 26.3 °F /  -3.2 °C 30.45in /  1031hPa SE 5.0mph /  8km/h 11.0mph /  17.7km/h 49% 0.00in /  0mm
09:10 44.7 °F /  7.1 °C 27.2 °F /  -2.7 °C 30.46in /  1031.4hPa SE 11.0mph /  17.7km/h 11.0mph /  17.7km/h 50% 0.00in /  0mm
09:15 45.1 °F /  7.3 °C 26.1 °F /  -3.3 °C 30.46in /  1031.4hPa SSE 10.0mph /  16.1km/h 13.0mph /  20.9km/h 47% 0.00in /  0mm
09:20 45.5 °F /  7.5 °C 26.5 °F /  -3.1 °C 30.46in /  1031.4hPa SE 7.0mph /  11.3km/h 13.0mph /  20.9km/h 47% 0.00in /  0mm
09:25 46.1 °F /  7.8 °C 27.5 °F /  -2.5 °C 30.45in /  1031hPa ESE 11.0mph /  17.7km/h 11.0mph /  17.7km/h 48% 0.00in /  0mm
09:30 46.7 °F /  8.2 °C 26.5 °F /  -3.1 °C 30.45in /  1031hPa ESE 14.0mph /  22.5km/h 14.0mph /  22.5km/h 45% 0.00in /  0mm
09:35 47.2 °F /  8.4 °C 27.5 °F /  -2.5 °C 30.46in /  1031.4hPa SE 14.0mph /  22.5km/h 14.0mph /  22.5km/h 46% 0.00in /  0mm
09:40 47.6 °F /  8.7 °C 26.8 °F /  -2.9 °C 30.46in /  1031.4hPa ESE 11.0mph /  17.7km/h 14.0mph /  22.5km/h 44% 0.00in /  0mm
09:45 48.0 °F /  8.9 °C 25.4 °F /  -3.7 °C 30.46in /  1031.4hPa SE 9.0mph /  14.5km/h 14.0mph /  22.5km/h 41% 0.00in /  0mm
09:50 48.3 °F /  9.1 °C 25.7 °F /  -3.5 °C 30.46in /  1031.4hPa SE 11.0mph /  17.7km/h 14.0mph /  22.5km/h 41% 0.00in /  0mm
09:55 48.7 °F /  9.3 °C 27.2 °F /  -2.7 °C 30.46in /  1031.4hPa SSE 9.0mph /  14.5km/h 16.0mph /  25.7km/h 43% 0.00in /  0mm
10:00 49.1 °F /  9.5 °C 26.4 °F /  -3.1 °C 30.46in /  1031.4hPa ESE 12.0mph /  19.3km/h 15.0mph /  24.1km/h 41% 0.00in /  0mm
10:05 49.7 °F /  9.8 °C 25.8 °F /  -3.4 °C 30.46in /  1031.4hPa ESE 13.0mph /  20.9km/h 17.0mph /  27.4km/h 39% 0.00in /  0mm
10:10 50.0 °F /  10 °C 25.4 °F /  -3.7 °C 30.46in /  1031.4hPa SE 10.0mph /  16.1km/h 14.0mph /  22.5km/h 38% 0.00in /  0mm
10:15 50.4 °F /  10.2 °C 25.1 °F /  -3.8 °C 30.45in /  1031hPa SE 10.0mph /  16.1km/h 16.0mph /  25.7km/h 37% 0.00in /  0mm
10:16 50.4 °F /  10.2 °C 25.1 °F /  -3.8 °C 30.45in /  1031hPa SE 14.0mph /  22.5km/h 16.0mph /  25.7km/h 37% 0.00in /  0mm
10:21 50.9 °F /  10.5 °C 25.6 °F /  -3.6 °C 30.45in /  1031hPa East 11.0mph /  17.7km/h 14.0mph /  22.5km/h 37% 0.00in /  0mm
10:26 51.2 °F /  10.7 °C 27.7 °F /  -2.4 °C 30.45in /  1031hPa SE 7.0mph /  11.3km/h 16.0mph /  25.7km/h 40% 0.00in /  0mm
10:31 52.2 °F /  11.2 °C 28.0 °F /  -2.2 °C 30.45in /  1031hPa SSE 11.0mph /  17.7km/h 11.0mph /  17.7km/h 39% 0.00in /  0mm
10:36 52.5 °F /  11.4 °C 27.6 °F /  -2.4 °C 30.45in /  1031hPa SE 7.0mph /  11.3km/h 14.0mph /  22.5km/h 38% 0.00in /  0mm
10:41 53.0 °F /  11.7 °C 26.8 °F /  -2.9 °C 30.45in /  1031hPa SE 9.0mph /  14.5km/h 13.0mph /  20.9km/h 36% 0.00in /  0mm
10:46 53.1 °F /  11.7 °C 26.2 °F /  -3.2 °C 30.45in /  1031hPa SE 9.0mph /  14.5km/h 17.0mph /  27.4km/h 35% 0.00in /  0mm
10:51 53.3 °F /  11.8 °C 25.7 °F /  -3.5 °C 30.45in /  1031hPa SSE 11.0mph /  17.7km/h 16.0mph /  25.7km/h 34% 0.00in /  0mm
10:56 53.7 °F /  12.1 °C 26.7 °F /  -2.9 °C 30.45in /  1031hPa SSE 13.0mph /  20.9km/h 16.0mph /  25.7km/h 35% 0.00in /  0mm
11:01 53.7 °F /  12.1 °C 26.7 °F /  -2.9 °C 30.45in /  1031hPa SE 9.0mph /  14.5km/h 12.0mph /  19.3km/h 35% 0.00in /  0mm
11:06 54.1 °F /  12.3 °C 29.1 °F /  -1.6 °C 30.45in /  1031hPa ESE 9.0mph /  14.5km/h 15.0mph /  24.1km/h 38% 0.00in /  0mm
11:11 54.2 °F /  12.3 °C 27.9 °F /  -2.3 °C 30.45in /  1031hPa SE 8.0mph /  12.9km/h 12.0mph /  19.3km/h 36% 0.00in /  0mm
11:16 54.3 °F /  12.4 °C 27.2 °F /  -2.7 °C 30.45in /  1031hPa SE 13.0mph /  20.9km/h 14.0mph /  22.5km/h 35% 0.00in /  0mm
11:21 55.0 °F /  12.8 °C 27.2 °F /  -2.7 °C 30.45in /  1031hPa SSE 11.0mph /  17.7km/h 17.0mph /  27.4km/h 34% 0.00in /  0mm
11:26 55.3 °F /  12.9 °C 25.2 °F /  -3.8 °C 30.45in /  1031hPa SSE 7.0mph /  11.3km/h 17.0mph /  27.4km/h 31% 0.00in /  0mm
11:31 55.8 °F /  13.2 °C 27.1 °F /  -2.7 °C 30.45in /  1031hPa SE 11.0mph /  17.7km/h 18.0mph /  29km/h 33% 0.00in /  0mm
11:36 55.5 °F /  13.1 °C 27.6 °F /  -2.4 °C 30.45in /  1031hPa ESE 11.0mph /  17.7km/h 14.0mph /  22.5km/h 34% 0.00in /  0mm
11:41 56.0 °F /  13.3 °C 25.8 °F /  -3.4 °C 30.44in /  1030.7hPa SSE 15.0mph /  24.1km/h 19.0mph /  30.6km/h 31% 0.00in /  0mm
11:46 56.1 °F /  13.4 °C 25.9 °F /  -3.4 °C 30.45in /  1031hPa ESE 13.0mph /  20.9km/h 20.0mph /  32.2km/h 31% 0.00in /  0mm
11:51 55.9 °F /  13.3 °C 24.9 °F /  -3.9 °C 30.44in /  1030.7hPa SE 13.0mph /  20.9km/h 16.0mph /  25.7km/h 30% 0.00in /  0mm
11:56 56.2 °F /  13.4 °C 26.0 °F /  -3.3 °C 30.44in /  1030.7hPa SE 13.0mph /  20.9km/h 13.0mph /  20.9km/h 31% 0.00in /  0mm
12:01 56.5 °F /  13.6 °C 27.8 °F /  -2.3 °C 30.44in /  1030.7hPa SE 10.0mph /  16.1km/h 12.0mph /  19.3km/h 33% 0.00in /  0mm
12:06 56.6 °F /  13.7 °C 25.5 °F /  -3.6 °C 30.44in /  1030.7hPa ESE 8.0mph /  12.9km/h 16.0mph /  25.7km/h 30% 0.00in /  0mm
12:11 57.4 °F /  14.1 °C 27.8 °F /  -2.3 °C 30.44in /  1030.7hPa ESE 7.0mph /  11.3km/h 11.0mph /  17.7km/h 32% 0.00in /  0mm
12:16 57.9 °F /  14.4 °C 29.0 °F /  -1.7 °C 30.44in /  1030.7hPa SSE 13.0mph /  20.9km/h 13.0mph /  20.9km/h 33% 0.00in /  0mm
12:21 58.5 °F /  14.7 °C 26.4 °F /  -3.1 °C 30.44in /  1030.7hPa SE 15.0mph /  24.1km/h 15.0mph /  24.1km/h 29% 0.00in /  0mm
12:26 58.6 °F /  14.8 °C 24.8 °F /  -4 °C 30.44in /  1030.7hPa SSW 9.0mph /  14.5km/h 15.0mph /  24.1km/h 27% 0.00in /  0mm
12:31 58.8 °F /  14.9 °C 27.5 °F /  -2.5 °C 30.43in /  1030.4hPa SE 7.0mph /  11.3km/h 14.0mph /  22.5km/h 30% 0.00in /  0mm
12:37 59.3 °F /  15.2 °C 25.4 °F /  -3.7 °C 30.43in /  1030.4hPa SE 10.0mph /  16.1km/h 13.0mph /  20.9km/h 27% 0.00in /  0mm
12:42 59.2 °F /  15.1 °C 26.1 °F /  -3.3 °C 30.43in /  1030.4hPa ESE 10.0mph /  16.1km/h 15.0mph /  24.1km/h 28% 0.00in /  0mm
12:47 59.2 °F /  15.1 °C 26.1 °F /  -3.3 °C 30.42in /  1030hPa ESE 11.0mph /  17.7km/h 13.0mph /  20.9km/h 28% 0.00in /  0mm
12:52 59.6 °F /  15.3 °C 26.5 °F /  -3.1 °C 30.42in /  1030hPa SSE 13.0mph /  20.9km/h 14.0mph /  22.5km/h 28% 0.00in /  0mm
12:57 59.7 °F /  15.4 °C 23.9 °F /  -4.5 °C 30.42in /  1030hPa ESE 13.0mph /  20.9km/h 14.0mph /  22.5km/h 25% 0.00in /  0mm
13:02 59.5 °F /  15.3 °C 24.6 °F /  -4.1 °C 30.42in /  1030hPa ESE 14.0mph /  22.5km/h 16.0mph /  25.7km/h 26% 0.00in /  0mm
13:07 60.1 °F /  15.6 °C 26.0 °F /  -3.3 °C 30.41in /  1029.7hPa SSE 11.0mph /  17.7km/h 15.0mph /  24.1km/h 27% 0.00in /  0mm
13:12 60.4 °F /  15.8 °C 26.3 °F /  -3.2 °C 30.41in /  1029.7hPa SE 9.0mph /  14.5km/h 12.0mph /  19.3km/h 27% 0.00in /  0mm
13:17 60.5 °F /  15.8 °C 26.4 °F /  -3.1 °C 30.41in /  1029.7hPa SE 11.0mph /  17.7km/h 13.0mph /  20.9km/h 27% 0.00in /  0mm
13:22 60.5 °F /  15.8 °C 25.5 °F /  -3.6 °C 30.41in /  1029.7hPa ESE 14.0mph /  22.5km/h 14.0mph /  22.5km/h 26% 0.00in /  0mm
13:27 60.4 °F /  15.8 °C 24.4 °F /  -4.2 °C 30.40in /  1029.3hPa SSE 12.0mph /  19.3km/h 18.0mph /  29km/h 25% 0.00in /  0mm
13:32 60.9 °F /  16.1 °C 26.7 °F /  -2.9 °C 30.40in /  1029.3hPa SE 12.0mph /  19.3km/h 14.0mph /  22.5km/h 27% 0.00in /  0mm
13:38 61.4 °F /  16.3 °C 28.0 °F /  -2.2 °C 30.40in /  1029.3hPa SSE 7.0mph /  11.3km/h 14.0mph /  22.5km/h 28% 0.00in /  0mm
13:43 61.6 °F /  16.4 °C 25.5 °F /  -3.6 °C 30.39in /  1029hPa SE 13.0mph /  20.9km/h 18.0mph /  29km/h 25% 0.00in /  0mm
13:48 61.8 °F /  16.6 °C 26.6 °F /  -3 °C 30.39in /  1029hPa SSE 10.0mph /  16.1km/h 14.0mph /  22.5km/h 26% 0.00in /  0mm
13:53 62.3 °F /  16.8 °C 27.9 °F /  -2.3 °C 30.39in /  1029hPa SE 11.0mph /  17.7km/h 14.0mph /  22.5km/h 27% 0.00in /  0mm
13:58 62.4 °F /  16.9 °C 28.0 °F /  -2.2 °C 30.38in /  1028.7hPa East 13.0mph /  20.9km/h 13.0mph /  20.9km/h 27% 0.00in /  0mm
14:03 62.1 °F /  16.7 °C 26.8 °F /  -2.9 °C 30.38in /  1028.7hPa SSE 7.0mph /  11.3km/h 14.0mph /  22.5km/h 26% 0.00in /  0mm
14:08 62.2 °F /  16.8 °C 27.8 °F /  -2.3 °C 30.37in /  1028.3hPa SSE 16.0mph /  25.7km/h 17.0mph /  27.4km/h 27% 0.00in /  0mm
14:13 62.4 °F /  16.9 °C 28.0 °F /  -2.2 °C 30.36in /  1028hPa SE 6.0mph /  9.7km/h 12.0mph /  19.3km/h 27% 0.00in /  0mm
14:18 62.3 °F /  16.8 °C 26.1 °F /  -3.3 °C 30.37in /  1028.3hPa SSE 11.0mph /  17.7km/h 17.0mph /  27.4km/h 25% 0.00in /  0mm
14:23 62.4 °F /  16.9 °C 28.0 °F /  -2.2 °C 30.36in /  1028hPa SSE 7.0mph /  11.3km/h 16.0mph /  25.7km/h 27% 0.00in /  0mm
14:28 62.8 °F /  17.1 °C 27.4 °F /  -2.6 °C 30.36in /  1028hPa SE 7.0mph /  11.3km/h 12.0mph /  19.3km/h 26% 0.00in /  0mm
14:33 63.2 °F /  17.3 °C 29.6 °F /  -1.3 °C 30.36in /  1028hPa SE 8.0mph /  12.9km/h 14.0mph /  22.5km/h 28% 0.00in /  0mm
14:38 63.3 °F /  17.4 °C 27.9 °F /  -2.3 °C 30.35in /  1027.7hPa SSE 6.0mph /  9.7km/h 16.0mph /  25.7km/h 26% 0.00in /  0mm
14:43 63.9 °F /  17.7 °C 28.4 °F /  -2 °C 30.35in /  1027.7hPa ESE 10.0mph /  16.1km/h 17.0mph /  27.4km/h 26% 0.00in /  0mm
14:48 63.9 °F /  17.7 °C 27.4 °F /  -2.6 °C 30.34in /  1027.3hPa SE 16.0mph /  25.7km/h 16.0mph /  25.7km/h 25% 0.00in /  0mm
14:53 63.8 °F /  17.7 °C 25.3 °F /  -3.7 °C 30.34in /  1027.3hPa SE 10.0mph /  16.1km/h 13.0mph /  20.9km/h 23% 0.00in /  0mm
14:58 64.0 °F /  17.8 °C 27.5 °F /  -2.5 °C 30.34in /  1027.3hPa SSE 10.0mph /  16.1km/h 15.0mph /  24.1km/h 25% 0.00in /  0mm
15:03 64.1 °F /  17.8 °C 26.6 °F /  -3 °C 30.34in /  1027.3hPa SE 9.0mph /  14.5km/h 14.0mph /  22.5km/h 24% 0.00in /  0mm
15:08 64.0 °F /  17.8 °C 25.5 °F /  -3.6 °C 30.33in /  1027hPa East 8.0mph /  12.9km/h 17.0mph /  27.4km/h 23% 0.00in /  0mm
15:13 64.2 °F /  17.9 °C 28.6 °F /  -1.9 °C 30.33in /  1027hPa ESE 11.0mph /  17.7km/h 15.0mph /  24.1km/h 26% 0.00in /  0mm
15:18 64.2 °F /  17.9 °C 25.7 °F /  -3.5 °C 30.33in /  1027hPa SE 11.0mph /  17.7km/h 14.0mph /  22.5km/h 23% 0.00in /  0mm
15:23 64.3 °F /  17.9 °C 25.7 °F /  -3.5 °C 30.33in /  1027hPa SE 11.0mph /  17.7km/h 16.0mph /  25.7km/h 23% 0.00in /  0mm
15:28 64.2 °F /  17.9 °C 24.6 °F /  -4.1 °C 30.33in /  1027hPa SE 9.0mph /  14.5km/h 16.0mph /  25.7km/h 22% 0.00in /  0mm
15:33 64.3 °F /  17.9 °C 23.6 °F /  -4.7 °C 30.32in /  1026.6hPa SSE 11.0mph /  17.7km/h 17.0mph /  27.4km/h 21% 0.00in /  0mm
15:38 64.6 °F /  18.1 °C 24.9 °F /  -3.9 °C 30.33in /  1027hPa SE 21.0mph /  33.8km/h 21.0mph /  33.8km/h 22% 0.00in /  0mm
15:43 64.6 °F /  18.1 °C 23.8 °F /  -4.6 °C 30.33in /  1027hPa SSE 13.0mph /  20.9km/h 15.0mph /  24.1km/h 21% 0.00in /  0mm
15:48 64.9 °F /  18.3 °C 28.3 °F /  -2.1 °C 30.33in /  1027hPa SE 13.0mph /  20.9km/h 13.0mph /  20.9km/h 25% 0.00in /  0mm
15:53 64.9 °F /  18.3 °C 25.2 °F /  -3.8 °C 30.32in /  1026.6hPa SE 9.0mph /  14.5km/h 14.0mph /  22.5km/h 22% 0.00in /  0mm
15:58 65.0 °F /  18.3 °C 26.3 °F /  -3.2 °C 30.33in /  1027hPa SE 13.0mph /  20.9km/h 13.0mph /  20.9km/h 23% 0.00in /  0mm
16:03 64.7 °F /  18.2 °C 27.1 °F /  -2.7 °C 30.33in /  1027hPa SSE 10.0mph /  16.1km/h 15.0mph /  24.1km/h 24% 0.00in /  0mm
16:08 64.9 °F /  18.3 °C 27.3 °F /  -2.6 °C 30.33in /  1027hPa SE 7.0mph /  11.3km/h 13.0mph /  20.9km/h 24% 0.00in /  0mm
16:13 64.8 °F /  18.2 °C 25.1 °F /  -3.8 °C 30.32in /  1026.6hPa SE 8.0mph /  12.9km/h 14.0mph /  22.5km/h 22% 0.00in /  0mm
16:19 64.9 °F /  18.3 °C 26.2 °F /  -3.2 °C 30.32in /  1026.6hPa SE 10.0mph /  16.1km/h 16.0mph /  25.7km/h 23% 0.00in /  0mm
16:24 64.4 °F /  18 °C 26.9 °F /  -2.8 °C 30.32in /  1026.6hPa SE 13.0mph /  20.9km/h 18.0mph /  29km/h 24% 0.00in /  0mm
16:29 64.2 °F /  17.9 °C 25.7 °F /  -3.5 °C 30.32in /  1026.6hPa SSE 12.0mph /  19.3km/h 19.0mph /  30.6km/h 23% 0.00in /  0mm
16:34 64.2 °F /  17.9 °C 25.7 °F /  -3.5 °C 30.32in /  1026.6hPa SE 11.0mph /  17.7km/h 16.0mph /  25.7km/h 23% 0.00in /  0mm
16:39 64.4 °F /  18 °C 25.8 °F /  -3.4 °C 30.32in /  1026.6hPa SE 12.0mph /  19.3km/h 15.0mph /  24.1km/h 23% 0.00in /  0mm
16:44 64.6 °F /  18.1 °C 28.0 °F /  -2.2 °C 30.32in /  1026.6hPa South 10.0mph /  16.1km/h 15.0mph /  24.1km/h 25% 0.00in /  0mm
16:49 64.2 °F /  17.9 °C 26.7 °F /  -2.9 °C 30.32in /  1026.6hPa ESE 9.0mph /  14.5km/h 15.0mph /  24.1km/h 24% 0.00in /  0mm
16:54 63.4 °F /  17.4 °C 27.0 °F /  -2.8 °C 30.31in /  1026.3hPa ESE 8.0mph /  12.9km/h 13.0mph /  20.9km/h 25% 0.00in /  0mm
16:59 62.9 °F /  17.2 °C 26.6 °F /  -3 °C 30.31in /  1026.3hPa SE 11.0mph /  17.7km/h 19.0mph /  30.6km/h 25% 0.00in /  0mm
17:04 63.1 °F /  17.3 °C 26.7 °F /  -2.9 °C 30.31in /  1026.3hPa ESE 8.0mph /  12.9km/h 12.0mph /  19.3km/h 25% 0.00in /  0mm
17:09 63.7 °F /  17.6 °C 30.0 °F /  -1.1 °C 30.31in /  1026.3hPa ESE 5.0mph /  8km/h 10.0mph /  16.1km/h 28% 0.00in /  0mm
17:14 63.7 °F /  17.6 °C 27.2 °F /  -2.7 °C 30.31in /  1026.3hPa SE 17.0mph /  27.4km/h 17.0mph /  27.4km/h 25% 0.00in /  0mm
17:19 63.3 °F /  17.4 °C 26.9 °F /  -2.8 °C 30.31in /  1026.3hPa SE 9.0mph /  14.5km/h 13.0mph /  20.9km/h 25% 0.00in /  0mm
17:24 62.9 °F /  17.2 °C 26.6 °F /  -3 °C 30.31in /  1026.3hPa SSE 10.0mph /  16.1km/h 18.0mph /  29km/h 25% 0.00in /  0mm
17:29 62.7 °F /  17.1 °C 26.4 °F /  -3.1 °C 30.32in /  1026.6hPa SSE 11.0mph /  17.7km/h 16.0mph /  25.7km/h 25% 0.00in /  0mm
17:34 62.4 °F /  16.9 °C 27.1 °F /  -2.7 °C 30.32in /  1026.6hPa SE 7.0mph /  11.3km/h 16.0mph /  25.7km/h 26% 0.00in /  0mm
17:39 62.2 °F /  16.8 °C 26.9 °F /  -2.8 °C 30.31in /  1026.3hPa SE 5.0mph /  8km/h 9.0mph /  14.5km/h 26% 0.00in /  0mm
17:44 62.0 °F /  16.7 °C 27.7 °F /  -2.4 °C 30.31in /  1026.3hPa SE 10.0mph /  16.1km/h 10.0mph /  16.1km/h 27% 0.00in /  0mm
17:49 62.0 °F /  16.7 °C 27.7 °F /  -2.4 °C 30.31in /  1026.3hPa SE 9.0mph /  14.5km/h 14.0mph /  22.5km/h 27% 0.00in /  0mm
17:54 61.9 °F /  16.6 °C 26.7 °F /  -2.9 °C 30.31in /  1026.3hPa ESE 6.0mph /  9.7km/h 14.0mph /  22.5km/h 26% 0.00in /  0mm
17:59 61.7 °F /  16.5 °C 27.4 °F /  -2.6 °C 30.31in /  1026.3hPa SE 6.0mph /  9.7km/h 14.0mph /  22.5km/h 27% 0.00in /  0mm
18:04 61.5 °F /  16.4 °C 29.0 °F /  -1.7 °C 30.31in /  1026.3hPa ESE 6.0mph /  9.7km/h 11.0mph /  17.7km/h 29% 0.00in /  0mm
18:09 61.2 °F /  16.2 °C 27.9 °F /  -2.3 °C 30.31in /  1026.3hPa SSE 10.0mph /  16.1km/h 11.0mph /  17.7km/h 28% 0.00in /  0mm
18:14 60.8 °F /  16 °C 28.4 °F /  -2 °C 30.31in /  1026.3hPa SE 4.0mph /  6.4km/h 8.0mph /  12.9km/h 29% 0.00in /  0mm
18:19 60.5 °F /  15.8 °C 28.1 °F /  -2.2 °C 30.31in /  1026.3hPa ESE 7.0mph /  11.3km/h 8.0mph /  12.9km/h 29% 0.00in /  0mm
18:24 60.3 °F /  15.7 °C 27.9 °F /  -2.3 °C 30.31in /  1026.3hPa SE 3.0mph /  4.8km/h 9.0mph /  14.5km/h 29% 0.00in /  0mm
18:29 60.0 °F /  15.6 °C 27.7 °F /  -2.4 °C 30.30in /  1026hPa SE 5.0mph /  8km/h 8.0mph /  12.9km/h 29% 0.00in /  0mm
18:34 59.8 °F /  15.4 °C 29.1 °F /  -1.6 °C 30.30in /  1026hPa SE 6.0mph /  9.7km/h 8.0mph /  12.9km/h 31% 0.00in /  0mm
18:40 59.2 °F /  15.1 °C 28.6 °F /  -1.9 °C 30.30in /  1026hPa ESE 5.0mph /  8km/h 7.0mph /  11.3km/h 31% 0.00in /  0mm
18:45 58.8 °F /  14.9 °C 29.0 °F /  -1.7 °C 30.30in /  1026hPa SE 5.0mph /  8km/h 8.0mph /  12.9km/h 32% 0.00in /  0mm
18:50 58.8 °F /  14.9 °C 28.3 °F /  -2.1 °C 30.31in /  1026.3hPa SE 5.0mph /  8km/h 7.0mph /  11.3km/h 31% 0.00in /  0mm
18:55 58.9 °F /  14.9 °C 29.1 °F /  -1.6 °C 30.31in /  1026.3hPa SE 4.0mph /  6.4km/h 9.0mph /  14.5km/h 32% 0.00in /  0mm
19:00 58.7 °F /  14.8 °C 27.4 °F /  -2.6 °C 30.31in /  1026.3hPa SE 9.0mph /  14.5km/h 10.0mph /  16.1km/h 30% 0.00in /  0mm
19:05 58.7 °F /  14.8 °C 27.4 °F /  -2.6 °C 30.31in /  1026.3hPa SE 8.0mph /  12.9km/h 9.0mph /  14.5km/h 30% 0.00in /  0mm
19:10 58.7 °F /  14.8 °C 27.4 °F /  -2.6 °C 30.31in /  1026.3hPa SSE 5.0mph /  8km/h 8.0mph /  12.9km/h 30% 0.00in /  0mm
19:15 58.5 °F /  14.7 °C 27.2 °F /  -2.7 °C 30.31in /  1026.3hPa SSE 5.0mph /  8km/h 10.0mph /  16.1km/h 30% 0.00in /  0mm
19:20 58.2 °F /  14.6 °C 26.9 °F /  -2.8 °C 30.32in /  1026.6hPa SE 5.0mph /  8km/h 8.0mph /  12.9km/h 30% 0.00in /  0mm
19:25 58.0 °F /  14.4 °C 27.6 °F /  -2.4 °C 30.32in /  1026.6hPa SE 6.0mph /  9.7km/h 8.0mph /  12.9km/h 31% 0.00in /  0mm
19:31 57.9 °F /  14.4 °C 27.5 °F /  -2.5 °C 30.31in /  1026.3hPa SE 4.0mph /  6.4km/h 8.0mph /  12.9km/h 31% 0.00in /  0mm
19:36 57.9 °F /  14.4 °C 27.5 °F /  -2.5 °C 30.31in /  1026.3hPa SSE 8.0mph /  12.9km/h 10.0mph /  16.1km/h 31% 0.00in /  0mm
19:41 58.0 °F /  14.4 °C 27.6 °F /  -2.4 °C 30.31in /  1026.3hPa SSE 8.0mph /  12.9km/h 10.0mph /  16.1km/h 31% 0.00in /  0mm
19:46 58.0 °F /  14.4 °C 27.6 °F /  -2.4 °C 30.32in /  1026.6hPa SE 8.0mph /  12.9km/h 9.0mph /  14.5km/h 31% 0.00in /  0mm
19:51 57.8 °F /  14.3 °C 27.4 °F /  -2.6 °C 30.32in /  1026.6hPa SE 5.0mph /  8km/h 9.0mph /  14.5km/h 31% 0.00in /  0mm
19:56 57.7 °F /  14.3 °C 27.3 °F /  -2.6 °C 30.32in /  1026.6hPa SE 9.0mph /  14.5km/h 10.0mph /  16.1km/h 31% 0.00in /  0mm
20:01 57.7 °F /  14.3 °C 27.3 °F /  -2.6 °C 30.32in /  1026.6hPa SE 5.0mph /  8km/h 9.0mph /  14.5km/h 31% 0.00in /  0mm
20:06 57.6 °F /  14.2 °C 28.0 °F /  -2.2 °C 30.32in /  1026.6hPa SSE 7.0mph /  11.3km/h 9.0mph /  14.5km/h 32% 0.00in /  0mm
20:11 57.4 °F /  14.1 °C 28.5 °F /  -1.9 °C 30.32in /  1026.6hPa SSE 5.0mph /  8km/h 8.0mph /  12.9km/h 33% 0.00in /  0mm
20:16 57.0 °F /  13.9 °C 28.2 °F /  -2.1 °C 30.32in /  1026.6hPa SE 8.0mph /  12.9km/h 9.0mph /  14.5km/h 33% 0.00in /  0mm
20:21 57.0 °F /  13.9 °C 28.2 °F /  -2.1 °C 30.32in /  1026.6hPa SSE 4.0mph /  6.4km/h 8.0mph /  12.9km/h 33% 0.00in /  0mm
20:26 56.8 °F /  13.8 °C 28.0 °F /  -2.2 °C 30.33in /  1027hPa SE 7.0mph /  11.3km/h 7.0mph /  11.3km/h 33% 0.00in /  0mm
20:31 56.8 °F /  13.8 °C 28.0 °F /  -2.2 °C 30.33in /  1027hPa SSE 9.0mph /  14.5km/h 9.0mph /  14.5km/h 33% 0.00in /  0mm
20:36 56.7 °F /  13.7 °C 28.7 °F /  -1.8 °C 30.33in /  1027hPa SE 5.0mph /  8km/h 6.0mph /  9.7km/h 34% 0.00in /  0mm
20:41 56.5 °F /  13.6 °C 28.5 °F /  -1.9 °C 30.33in /  1027hPa SE 5.0mph /  8km/h 6.0mph /  9.7km/h 34% 0.00in /  0mm
20:46 56.5 °F /  13.6 °C 29.2 °F /  -1.6 °C 30.33in /  1027hPa SE 4.0mph /  6.4km/h 8.0mph /  12.9km/h 35% 0.00in /  0mm
20:51 56.3 °F /  13.5 °C 29.0 °F /  -1.7 °C 30.33in /  1027hPa ESE 4.0mph /  6.4km/h 6.0mph /  9.7km/h 35% 0.00in /  0mm
20:56 55.7 °F /  13.2 °C 29.2 °F /  -1.6 °C 30.34in /  1027.3hPa SE 6.0mph /  9.7km/h 8.0mph /  12.9km/h 36% 0.00in /  0mm
21:01 55.5 °F /  13.1 °C 29.0 °F /  -1.7 °C 30.34in /  1027.3hPa SE 4.0mph /  6.4km/h 8.0mph /  12.9km/h 36% 0.00in /  0mm
21:06 55.4 °F /  13 °C 29.6 °F /  -1.3 °C 30.35in /  1027.7hPa SE 6.0mph /  9.7km/h 6.0mph /  9.7km/h 37% 0.00in /  0mm
21:11 55.1 °F /  12.8 °C 29.3 °F /  -1.5 °C 30.35in /  1027.7hPa SE 4.0mph /  6.4km/h 5.0mph /  8km/h 37% 0.00in /  0mm
21:16 54.8 °F /  12.7 °C 29.7 °F /  -1.3 °C 30.35in /  1027.7hPa SE 3.0mph /  4.8km/h 5.0mph /  8km/h 38% 0.00in /  0mm
21:21 54.5 °F /  12.5 °C 30.1 °F /  -1.1 °C 30.35in /  1027.7hPa ESE 3.0mph /  4.8km/h 5.0mph /  8km/h 39% 0.00in /  0mm
21:26 54.2 °F /  12.3 °C 29.8 °F /  -1.2 °C 30.36in /  1028hPa SE 6.0mph /  9.7km/h 8.0mph /  12.9km/h 39% 0.00in /  0mm
21:31 54.1 °F /  12.3 °C 29.7 °F /  -1.3 °C 30.36in /  1028hPa SE 5.0mph /  8km/h 7.0mph /  11.3km/h 39% 0.00in /  0mm
21:36 53.8 °F /  12.1 °C 30.1 °F /  -1.1 °C 30.36in /  1028hPa SE 4.0mph /  6.4km/h 6.0mph /  9.7km/h 40% 0.00in /  0mm
21:41 53.6 °F /  12 °C 29.9 °F /  -1.2 °C 30.36in /  1028hPa South 6.0mph /  9.7km/h 6.0mph /  9.7km/h 40% 0.00in /  0mm
21:46 53.6 °F /  12 °C 29.9 °F /  -1.2 °C 30.36in /  1028hPa ESE 5.0mph /  8km/h 7.0mph /  11.3km/h 40% 0.00in /  0mm
21:51 53.4 °F /  11.9 °C 30.3 °F /  -0.9 °C 30.36in /  1028hPa SE 7.0mph /  11.3km/h 7.0mph /  11.3km/h 41% 0.00in /  0mm
21:56 53.2 °F /  11.8 °C 30.1 °F /  -1.1 °C 30.36in /  1028hPa ESE 4.0mph /  6.4km/h 8.0mph /  12.9km/h 41% 0.00in /  0mm
22:01 53.2 °F /  11.8 °C 30.1 °F /  -1.1 °C 30.36in /  1028hPa SSE 7.0mph /  11.3km/h 8.0mph /  12.9km/h 41% 0.00in /  0mm
22:07 53.2 °F /  11.8 °C 30.7 °F /  -0.7 °C 30.36in /  1028hPa SE 6.0mph /  9.7km/h 6.0mph /  9.7km/h 42% 0.00in /  0mm
22:12 53.0 °F /  11.7 °C 30.5 °F /  -0.8 °C 30.36in /  1028hPa SE 4.0mph /  6.4km/h 7.0mph /  11.3km/h 42% 0.00in /  0mm
22:17 52.9 °F /  11.6 °C 30.5 °F /  -0.8 °C 30.36in /  1028hPa SE 5.0mph /  8km/h 6.0mph /  9.7km/h 42% 0.00in /  0mm
22:22 52.9 °F /  11.6 °C 31.0 °F /  -0.6 °C 30.36in /  1028hPa SE 4.0mph /  6.4km/h 5.0mph /  8km/h 43% 0.00in /  0mm
22:27 52.8 °F /  11.6 °C 30.9 °F /  -0.6 °C 30.36in /  1028hPa ESE 4.0mph /  6.4km/h 7.0mph /  11.3km/h 43% 0.00in /  0mm
22:32 52.9 °F /  11.6 °C 31.0 °F /  -0.6 °C 30.36in /  1028hPa SE 6.0mph /  9.7km/h 11.0mph /  17.7km/h 43% 0.00in /  0mm
22:37 52.8 °F /  11.6 °C 30.9 °F /  -0.6 °C 30.36in /  1028hPa ESE 5.0mph /  8km/h 10.0mph /  16.1km/h 43% 0.00in /  0mm
22:42 52.7 °F /  11.5 °C 30.9 °F /  -0.6 °C 30.36in /  1028hPa ESE 4.0mph /  6.4km/h 8.0mph /  12.9km/h 43% 0.00in /  0mm
22:47 52.5 °F /  11.4 °C 31.2 °F /  -0.4 °C 30.36in /  1028hPa ESE 5.0mph /  8km/h 7.0mph /  11.3km/h 44% 0.00in /  0mm
22:52 52.5 °F /  11.4 °C 31.2 °F /  -0.4 °C 30.36in /  1028hPa ESE 5.0mph /  8km/h 7.0mph /  11.3km/h 44% 0.00in /  0mm
22:57 52.4 °F /  11.3 °C 31.1 °F /  -0.5 °C 30.36in /  1028hPa ESE 4.0mph /  6.4km/h 8.0mph /  12.9km/h 44% 0.00in /  0mm
23:02 52.3 °F /  11.3 °C 31.0 °F /  -0.6 °C 30.36in /  1028hPa SE 7.0mph /  11.3km/h 8.0mph /  12.9km/h 44% 0.00in /  0mm
23:07 52.0 °F /  11.1 °C 30.8 °F /  -0.7 °C 30.35in /  1027.7hPa SE 8.0mph /  12.9km/h 8.0mph /  12.9km/h 44% 0.00in /  0mm
23:12 52.1 °F /  11.2 °C 30.9 °F /  -0.6 °C 30.35in /  1027.7hPa SE 8.0mph /  12.9km/h 8.0mph /  12.9km/h 44% 0.00in /  0mm
23:17 52.2 °F /  11.2 °C 31.0 °F /  -0.6 °C 30.35in /  1027.7hPa ESE 4.0mph /  6.4km/h 8.0mph /  12.9km/h 44% 0.00in /  0mm
23:22 52.0 °F /  11.1 °C 31.3 °F /  -0.4 °C 30.35in /  1027.7hPa ENE 6.0mph /  9.7km/h 8.0mph /  12.9km/h 45% 0.00in /  0mm
23:27 51.9 °F /  11.1 °C 31.2 °F /  -0.4 °C 30.35in /  1027.7hPa ESE 8.0mph /  12.9km/h 8.0mph /  12.9km/h 45% 0.00in /  0mm
23:32 52.0 °F /  11.1 °C 31.3 °F /  -0.4 °C 30.35in /  1027.7hPa ESE 6.0mph /  9.7km/h 10.0mph /  16.1km/h 45% 0.00in /  0mm
23:37 52.1 °F /  11.2 °C 31.4 °F /  -0.3 °C 30.35in /  1027.7hPa ESE 8.0mph /  12.9km/h 11.0mph /  17.7km/h 45% 0.00in /  0mm
23:42 52.2 °F /  11.2 °C 31.5 °F /  -0.3 °C 30.35in /  1027.7hPa SE 5.0mph /  8km/h 8.0mph /  12.9km/h 45% 0.00in /  0mm
23:47 52.2 °F /  11.2 °C 31.5 °F /  -0.3 °C 30.35in /  1027.7hPa ESE 7.0mph /  11.3km/h 8.0mph /  12.9km/h 45% 0.00in /  0mm
23:52 52.3 °F /  11.3 °C 31.6 °F /  -0.2 °C 30.35in /  1027.7hPa SE 7.0mph /  11.3km/h 10.0mph /  16.1km/h 45% 0.00in /  0mm
23:57 52.2 °F /  11.2 °C 31.0 °F /  -0.6 °C 30.35in /  1027.7hPa SE 7.0mph /  11.3km/h 8.0mph /  12.9km/h 44% 0.00in /  0mm
Compliments of Weather Underground